PWSweather.com
Personal Weather Stations
Station Observations
WISCHPK61
Green Bay Schmitt Park, Green Bay, WI 54311

Green Bay Schmitt ParkGreen Bay, WI 54311

Lat: 44.514277, Lon: -87.935067

Elevation: 735

Station Type: Acu Rite Pro Weather Center model 02032C

http://greenbayweathercam.com

High Low Average
Temperature 54.9°F12.7°C 30.0°F-1.1°C 39.0°F3.9°C
Dew Point 54.6°F12.6°C 29.8°F-1.2°C 38.0°F3.3°C
Winds Calm Calm Calm Calm Calm SWCalm SW
Wind Gusts 2.3 mph3.7 kmh -- --
Humidity 99% 51% 97%
Pressure 29.58 in1001.7 mb 29.20 in988.8 mb -
Precipitation 0.00 in0.0 mm - -
Hour Temp Dew Point Humidity Winds Wind Gusts Pressure Precip Precip Rate Daily Precip Total
12:00 AM 37.2°F2.9°C 36.9°F2.7°C 99% Calm Calm 1.2 mph1.9 kmh 29.18 in988.1 mb - 0.00 in0.0 mm 0.00 in0.0 mm
01:00 AM 36.7°F2.6°C 36.4°F2.4°C 99% Calm Calm -- 29.20 in988.8 mb - 0.00 in0.0 mm 0.00 in0.0 mm
02:00 AM 35.4°F1.9°C 35.1°F1.7°C 99% Calm Calm -- 29.23 in989.8 mb - 0.00 in0.0 mm 0.00 in0.0 mm
03:00 AM 34.3°F1.3°C 34.0°F1.1°C 99% Calm Calm -- 29.26 in990.9 mb - 0.00 in0.0 mm 0.00 in0.0 mm
04:00 AM 32.5°F0.3°C 32.3°F0.2°C 99% Calm Calm -- 29.29 in991.9 mb - 0.00 in0.0 mm 0.00 in0.0 mm
05:00 AM 31.8°F-0.1°C 31.6°F-0.2°C 99% Calm Calm -- 29.32 in992.9 mb - 0.00 in0.0 mm 0.00 in0.0 mm
06:00 AM 30.4°F-0.9°C 30.2°F-1.0°C 99% Calm Calm -- 29.36 in994.2 mb - 0.00 in0.0 mm 0.00 in0.0 mm
07:00 AM 30.0°F-1.1°C 29.8°F-1.2°C 99% Calm Calm -- 29.39 in995.3 mb - 0.00 in0.0 mm 0.00 in0.0 mm
08:00 AM 31.9°F-0.1°C 31.7°F-0.2°C 99% Calm Calm 2.3 mph3.7 kmh 29.43 in996.6 mb - 0.00 in0.0 mm 0.00 in0.0 mm
09:00 AM 36.9°F2.7°C 36.6°F2.6°C 99% Calm Calm -- 29.44 in997.0 mb - 0.00 in0.0 mm 0.00 in0.0 mm
10:00 AM 37.3°F2.9°C 37.0°F2.8°C 99% Calm Calm -- 29.46 in997.6 mb - 0.00 in0.0 mm 0.00 in0.0 mm
11:00 AM 39.3°F4.1°C 39.0°F3.9°C 99% Calm Calm -- 29.48 in998.3 mb - 0.00 in0.0 mm 0.00 in0.0 mm
12:00 PM 40.8°F4.9°C 40.5°F4.7°C 99% Calm Calm -- 29.49 in998.6 mb - 0.00 in0.0 mm 0.00 in0.0 mm
01:00 PM 48.7°F9.3°C 48.4°F9.1°C 99% Calm Calm 1.2 mph1.9 kmh 29.48 in998.3 mb - 0.00 in0.0 mm 0.00 in0.0 mm
02:00 PM 53.2°F11.8°C 35.5°F1.9°C 51% Calm Calm -- 29.47 in998.0 mb - 0.00 in0.0 mm 0.00 in0.0 mm
03:00 PM 54.9°F12.7°C 54.6°F12.6°C 99% Calm Calm -- 29.47 in998.0 mb - 0.00 in0.0 mm 0.00 in0.0 mm
04:00 PM 46.9°F8.3°C 46.7°F8.2°C 99% Calm Calm -- 29.47 in998.0 mb - 0.00 in0.0 mm 0.00 in0.0 mm
05:00 PM 50.0°F10.0°C 49.7°F9.8°C 99% Calm Calm -- 29.47 in998.0 mb - 0.00 in0.0 mm 0.00 in0.0 mm
06:00 PM 47.1°F8.4°C 46.8°F8.2°C 99% Calm Calm -- 29.47 in998.0 mb - 0.00 in0.0 mm 0.00 in0.0 mm
07:00 PM 43.0°F6.1°C 42.7°F5.9°C 99% Calm Calm -- 29.49 in998.6 mb - 0.00 in0.0 mm 0.00 in0.0 mm
08:00 PM 38.3°F3.5°C 38.0°F3.3°C 99% Calm Calm -- 29.51 in999.3 mb - 0.00 in0.0 mm 0.00 in0.0 mm
09:00 PM 35.9°F2.2°C 35.7°F2.1°C 99% Calm Calm -- 29.54 in1000.3 mb - 0.00 in0.0 mm 0.00 in0.0 mm
10:00 PM 34.3°F1.3°C 34.0°F1.1°C 99% Calm Calm -- 29.56 in1001.0 mb - 0.00 in0.0 mm 0.00 in0.0 mm
11:00 PM 33.4°F0.8°C 33.1°F0.6°C 99% Calm Calm -- 29.57 in1001.4 mb - 0.00 in0.0 mm 0.00 in0.0 mm